Time;durP1;ratioP1;P1;durP2;ratioP2;P2;SDS_P1;SDS_P2;PMS_P1;PMS_P2;Temp;Humidity;BMP_temperature;BMP_pressure;BME280_temperature;BME280_humidity;BME280_pressure;Samples;Min_cycle;Max_cycle;Signal;HPM_P1;HPM_P2
2022/08/18 00:01:24;;;;;;;12.40;6.75;;;;;;;;;;5112303;27;20047;-76
2022/08/18 00:03:58;;;;;;;16.85;6.30;;;;;;;;;;5130402;27;20047;-74
2022/08/18 00:06:31;;;;;;;8.90;5.03;;;;;;;;;;5129382;27;20050;-73
2022/08/18 00:09:05;;;;;;;13.70;4.85;;;;;;;;;;5130333;27;20047;-73
2022/08/18 00:11:40;;;;;;;9.15;4.72;;;;;;;;;;5130481;27;20039;-72
2022/08/18 00:14:15;;;;;;;10.60;4.70;;;;;;;;;;5128823;27;20058;-71
2022/08/18 00:16:52;;;;;;;7.97;4.47;;;;;;;;;;5130061;27;20043;-72
2022/08/18 00:19:23;;;;;;;10.98;4.63;;;;;;;;;;5111645;27;20512;-72
2022/08/18 00:22:17;;;;;;;8.02;4.28;;;;;;;;;;5129349;27;20051;-72
2022/08/18 00:24:54;;;;;;;11.45;5.63;;;;;;;;;;5129154;27;20047;-72
2022/08/18 00:27:29;;;;;;;8.80;4.28;;;;;;;;;;5130031;27;20050;-72
2022/08/18 00:30:03;;;;;;;11.27;4.95;;;;;;;;;;5129774;27;20050;-73
2022/08/18 00:32:36;;;;;;;9.88;5.10;;;;;;;;;;5130396;27;20050;-72
2022/08/18 00:35:12;;;;;;;14.43;5.07;;;;;;;;;;5129666;27;20055;-73
2022/08/18 00:37:43;;;;;;;11.18;4.38;;;;;;;;;;5128180;27;20447;-73
2022/08/18 00:40:20;;;;;;;8.65;4.30;;;;;;;;;;5127852;27;20409;-72
2022/08/18 00:42:55;;;;;;;10.07;5.55;;;;;;;;;;5129790;27;20374;-74
2022/08/18 00:45:31;;;;;;;8.27;4.40;;;;;;;;;;5128377;27;20409;-73
2022/08/18 00:48:06;;;;;;;7.57;4.15;;;;;;;;;;5129740;27;20055;-73
2022/08/18 00:50:51;;;;;;;9.48;3.90;;;;;;;;;;5130023;27;20054;-73
2022/08/18 00:53:38;;;;;;;12.32;4.85;;;;;;;;;;5129555;27;20043;-73
2022/08/18 00:56:14;;;;;;;12.52;4.18;;;;;;;;;;5129367;27;20050;-73
2022/08/18 00:58:46;;;;;;;;;;;;;;;;;;5129990;27;20489;-73
2022/08/18 01:01:22;;;;;;;7.38;4.30;;;;;;;;;;5129279;27;20332;-75
2022/08/18 01:03:59;;;;;;;12.80;5.22;;;;;;;;;;5128996;27;20050;-73
2022/08/18 01:06:44;;;;;;;8.25;4.75;;;;;;;;;;5129216;27;20147;-73
2022/08/18 01:09:16;;;;;;;16.33;5.65;;;;;;;;;;5127922;27;20058;-75
2022/08/18 01:11:46;;;;;;;7.75;4.85;;;;;;;;;;5128761;27;20047;-73
2022/08/18 01:14:17;;;;;;;10.52;4.82;;;;;;;;;;5128709;27;20047;-72
2022/08/18 01:22:32;;;;;;;12.57;4.82;;;;;;;;;;5127589;27;20055;-71
2022/08/18 01:27:55;;;;;;;8.95;5.03;;;;;;;;;;5128859;27;20054;-73
2022/08/18 01:30:30;;;;;;;8.77;4.78;;;;;;;;;;5129218;27;20050;-74
2022/08/18 01:33:00;;;;;;;11.00;6.50;;;;;;;;;;5127515;27;20425;-73
2022/08/18 01:35:30;;;;;;;9.75;5.00;;;;;;;;;;5128552;27;20054;-74
2022/08/18 01:38:10;;;;;;;11.18;4.93;;;;;;;;;;5128600;27;20501;-74
2022/08/18 01:40:40;;;;;;;9.18;5.00;;;;;;;;;;5128481;27;20058;-74
2022/08/18 01:43:31;;;;;;;9.98;5.47;;;;;;;;;;5128410;27;20405;-76
2022/08/18 01:46:03;;;;;;;12.35;4.68;;;;;;;;;;5128871;27;20860;-73
2022/08/18 01:48:35;;;;;;;11.55;5.38;;;;;;;;;;5128093;27;20560;-73
2022/08/18 01:51:07;;;;;;;11.13;5.38;;;;;;;;;;5127704;27;20058;-74
2022/08/18 01:53:38;;;;;;;10.35;4.88;;;;;;;;;;5127693;27;20043;-72
2022/08/18 01:56:09;;;;;;;7.63;4.28;;;;;;;;;;5128170;27;20051;-74
2022/08/18 01:58:39;;;;;;;8.95;4.78;;;;;;;;;;5128730;27;20390;-73
2022/08/18 02:01:11;;;;;;;11.88;4.80;;;;;;;;;;5128011;27;20058;-73
2022/08/18 02:03:48;;;;;;;7.60;4.43;;;;;;;;;;5127903;27;20043;-73
2022/08/18 02:06:19;;;;;;;13.35;5.25;;;;;;;;;;5127554;27;20047;-73
2022/08/18 02:09:01;;;;;;;9.18;4.82;;;;;;;;;;5128032;27;20314;-72
2022/08/18 02:11:33;;;;;;;12.23;5.03;;;;;;;;;;5128116;27;20043;-73
2022/08/18 02:14:05;;;;;;;14.40;4.78;;;;;;;;;;5127665;27;20046;-73
2022/08/18 02:16:35;;;;;;;11.27;4.38;;;;;;;;;;5125902;27;20055;-74
2022/08/18 02:19:05;;;;;;;12.88;4.63;;;;;;;;;;5125864;27;20539;-72
2022/08/18 02:21:35;;;;;;;9.38;4.00;;;;;;;;;;5127570;27;20566;-72
2022/08/18 02:24:05;;;;;;;8.52;4.13;;;;;;;;;;5126192;27;20050;-72
2022/08/18 02:26:36;;;;;;;9.65;4.28;;;;;;;;;;5127489;27;20520;-72
2022/08/18 02:29:05;;;;;;;8.48;4.35;;;;;;;;;;5127102;27;20070;-73
2022/08/18 02:31:36;;;;;;;7.82;3.92;;;;;;;;;;5127256;27;20047;-72
2022/08/18 02:34:07;;;;;;;8.07;3.53;;;;;;;;;;5127269;27;20051;-73
2022/08/18 02:36:36;;;;;;;9.95;4.20;;;;;;;;;;5127066;27;20047;-73
2022/08/18 02:39:06;;;;;;;10.38;5.20;;;;;;;;;;5127598;27;20989;-72
2022/08/18 02:41:36;;;;;;;9.90;4.43;;;;;;;;;;5125653;27;20051;-73
2022/08/18 02:44:07;;;;;;;6.95;3.97;;;;;;;;;;5109389;28;20047;-74
2022/08/18 02:46:37;;;;;;;11.43;5.05;;;;;;;;;;5127392;27;20444;-73
2022/08/18 02:49:11;;;;;;;10.00;4.63;;;;;;;;;;5127320;27;20051;-73
2022/08/18 02:51:43;;;;;;;9.15;5.25;;;;;;;;;;5127864;27;20379;-74
2022/08/18 02:54:13;;;;;;;12.80;5.55;;;;;;;;;;5126560;28;20055;-73
2022/08/18 02:56:44;;;;;;;10.13;4.60;;;;;;;;;;5127355;28;20042;-74
2022/08/18 02:59:18;;;;;;;16.10;4.88;;;;;;;;;;5127285;28;20043;-73
2022/08/18 03:01:51;;;;;;;16.30;5.80;;;;;;;;;;5108571;28;20047;-72
2022/08/18 03:04:28;;;;;;;13.00;5.53;;;;;;;;;;5128741;27;20047;-73
2022/08/18 03:07:01;;;;;;;9.75;4.85;;;;;;;;;;5131712;27;20046;-73
2022/08/18 03:09:33;;;;;;;11.65;5.03;;;;;;;;;;5131511;27;20098;-73
2022/08/18 03:12:06;;;;;;;10.63;6.03;;;;;;;;;;5131486;27;20047;-72
2022/08/18 03:14:38;;;;;;;9.90;4.90;;;;;;;;;;5131396;27;20031;-73
2022/08/18 03:17:09;;;;;;;9.60;4.82;;;;;;;;;;5130957;27;20053;-74
2022/08/18 03:19:39;;;;;;;13.25;4.72;;;;;;;;;;5131559;27;20043;-73
2022/08/18 03:22:11;;;;;;;9.23;5.32;;;;;;;;;;5131256;27;20374;-72
2022/08/18 03:24:57;;;;;;;9.25;5.20;;;;;;;;;;5130895;27;20047;-73
2022/08/18 03:27:28;;;;;;;10.15;5.18;;;;;;;;;;5113178;27;20035;-72
2022/08/18 03:29:57;;;;;;;9.65;5.43;;;;;;;;;;5130914;27;20050;-74
2022/08/18 03:32:27;;;;;;;12.23;5.38;;;;;;;;;;5113584;27;20051;-74
2022/08/18 03:34:58;;;;;;;10.13;5.68;;;;;;;;;;5131064;27;20054;-73
2022/08/18 03:37:28;;;;;;;10.00;5.93;;;;;;;;;;5131430;27;20120;-75
2022/08/18 03:39:58;;;;;;;11.15;6.50;;;;;;;;;;5130549;27;20466;-73
2022/08/18 03:42:29;;;;;;;12.68;6.35;;;;;;;;;;5130755;27;20043;-73
2022/08/18 03:44:59;;;;;;;11.25;6.40;;;;;;;;;;5131388;27;20050;-73
2022/08/18 03:47:45;;;;;;;15.20;6.90;;;;;;;;;;5130431;27;20051;-73
2022/08/18 03:50:15;;;;;;;19.13;8.57;;;;;;;;;;5131317;27;20475;-73
2022/08/18 03:52:48;;;;;;;17.60;10.98;;;;;;;;;;5112532;27;20405;-73
2022/08/18 03:55:19;;;;;;;20.88;9.95;;;;;;;;;;5130843;27;20051;-72
2022/08/18 03:57:51;;;;;;;18.27;10.38;;;;;;;;;;5131356;27;20047;-73
2022/08/18 04:00:22;;;;;;;22.55;11.00;;;;;;;;;;5130446;27;20054;-73
2022/08/18 04:02:52;;;;;;;23.70;11.88;;;;;;;;;;5130476;27;20054;-73
2022/08/18 04:05:22;;;;;;;29.13;12.77;;;;;;;;;;5129855;27;20047;-73
2022/08/18 04:07:53;;;;;;;24.88;14.00;;;;;;;;;;5111643;27;20047;-74
2022/08/18 04:10:26;;;;;;;34.00;15.48;;;;;;;;;;5130690;27;20039;-73
2022/08/18 04:12:56;;;;;;;28.70;15.73;;;;;;;;;;5131010;27;20051;-73
2022/08/18 04:15:26;;;;;;;33.88;16.25;;;;;;;;;;5129453;27;20409;-72
2022/08/18 04:18:03;;;;;;;31.08;16.65;;;;;;;;;;5130182;27;20054;-73
2022/08/18 04:20:34;;;;;;;38.22;19.52;;;;;;;;;;5130529;27;20522;-73
2022/08/18 04:23:05;;;;;;;39.10;18.50;;;;;;;;;;5129980;27;20054;-73
2022/08/18 04:25:35;;;;;;;41.90;20.23;;;;;;;;;;5130177;27;20058;-72
2022/08/18 04:28:05;;;;;;;39.28;19.67;;;;;;;;;;5130449;27;20509;-73
2022/08/18 04:30:36;;;;;;;39.50;20.17;;;;;;;;;;5111300;27;20051;-73
2022/08/18 04:33:06;;;;;;;39.60;19.48;;;;;;;;;;5130137;27;20051;-72
2022/08/18 04:35:36;;;;;;;35.58;18.83;;;;;;;;;;5129980;27;20051;-74
2022/08/18 04:38:06;;;;;;;45.40;20.92;;;;;;;;;;5130218;27;20043;-72
2022/08/18 04:40:36;;;;;;;40.28;17.75;;;;;;;;;;5129565;27;20050;-73
2022/08/18 04:43:14;;;;;;;35.33;17.92;;;;;;;;;;5129780;27;20054;-73
2022/08/18 04:45:49;;;;;;;42.97;19.55;;;;;;;;;;5129454;27;20054;-73
2022/08/18 04:48:20;;;;;;;37.75;16.88;;;;;;;;;;5129515;27;20074;-74
2022/08/18 04:50:50;;;;;;;30.63;15.73;;;;;;;;;;5129900;27;20109;-73
2022/08/18 04:56:08;;;;;;;28.17;14.38;;;;;;;;;;5110354;27;19946;-73
2022/08/18 04:58:37;;;;;;;27.38;15.63;;;;;;;;;;5130300;27;20054;-73
2022/08/18 05:01:08;;;;;;;34.40;17.08;;;;;;;;;;5129880;27;20043;-73
2022/08/18 05:03:40;;;;;;;38.90;17.10;;;;;;;;;;5129982;27;20047;-74
2022/08/18 05:06:20;;;;;;;36.17;16.60;;;;;;;;;;5129472;27;20062;-73
2022/08/18 05:09:05;;;;;;;32.97;16.42;;;;;;;;;;5129585;27;20047;-72
2022/08/18 05:11:36;;;;;;;39.58;19.10;;;;;;;;;;5129165;27;20038;-73
2022/08/18 05:14:08;;;;;;;33.83;16.60;;;;;;;;;;5129311;27;20039;-74
2022/08/18 05:16:39;;;;;;;39.72;17.23;;;;;;;;;;5110423;27;20047;-72
2022/08/18 05:19:21;;;;;;;35.88;15.95;;;;;;;;;;5129646;27;20389;-73
2022/08/18 05:21:56;;;;;;;23.85;11.70;;;;;;;;;;5128886;27;20042;-72
2022/08/18 05:24:31;;;;;;;27.00;13.63;;;;;;;;;;5128355;27;20047;-74
2022/08/18 05:27:06;;;;;;;27.38;13.80;;;;;;;;;;5127813;27;20051;-72
2022/08/18 05:29:36;;;;;;;29.23;14.32;;;;;;;;;;5128905;27;20059;-73
2022/08/18 05:32:14;;;;;;;28.70;14.65;;;;;;;;;;5128695;27;20039;-72
2022/08/18 05:35:08;;;;;;;28.70;15.75;;;;;;;;;;5128595;27;20043;-72
2022/08/18 05:37:58;;;;;;;26.83;14.27;;;;;;;;;;5128787;27;20051;-73
2022/08/18 05:40:30;;;;;;;31.92;14.63;;;;;;;;;;5128690;27;20043;-73
2022/08/18 05:43:02;;;;;;;28.33;13.05;;;;;;;;;;5128937;27;20046;-73
2022/08/18 05:45:33;;;;;;;25.73;12.85;;;;;;;;;;5128966;27;20047;-73
2022/08/18 05:48:03;;;;;;;23.58;11.70;;;;;;;;;;5128518;27;20074;-72
2022/08/18 05:50:36;;;;;;;17.15;10.95;;;;;;;;;;5128420;27;20043;-73
2022/08/18 05:53:12;;;;;;;26.20;11.23;;;;;;;;;;5109324;27;20054;-74
2022/08/18 05:58:45;;;;;;;;;;;;;;;;;;5128854;27;20505;-73
2022/08/18 06:01:22;;;;;;;20.90;8.38;;;;;;;;;;5128480;27;19937;-72
2022/08/18 06:04:04;;;;;;;16.13;10.00;;;;;;;;;;5126846;27;20058;-73
2022/08/18 06:06:36;;;;;;;15.57;9.30;;;;;;;;;;5128557;27;20047;-72
2022/08/18 06:09:33;;;;;;;17.92;8.52;;;;;;;;;;5128237;27;20042;-73
2022/08/18 06:12:20;;;;;;;16.95;9.75;;;;;;;;;;5128489;27;20402;-73
2022/08/18 06:14:51;;;;;;;19.38;10.13;;;;;;;;;;5128519;27;20043;-72
2022/08/18 06:17:31;;;;;;;23.73;9.23;;;;;;;;;;5128160;27;20050;-73
2022/08/18 06:20:13;;;;;;;15.88;8.73;;;;;;;;;;5127530;27;20047;-72
2022/08/18 06:22:49;;;;;;;15.00;8.73;;;;;;;;;;5128075;27;20042;-73
2022/08/18 06:25:34;;;;;;;17.10;9.43;;;;;;;;;;5128017;27;20050;-73
2022/08/18 06:28:14;;;;;;;18.17;8.35;;;;;;;;;;5127379;27;20054;-72
2022/08/18 06:30:48;;;;;;;18.52;9.05;;;;;;;;;;5127773;27;20046;-73
2022/08/18 06:33:37;;;;;;;19.77;9.20;;;;;;;;;;5128065;27;20047;-73
2022/08/18 06:36:27;;;;;;;21.92;9.52;;;;;;;;;;5108938;27;21166;-72
2022/08/18 06:39:28;;;;;;;15.25;8.50;;;;;;;;;;5128019;27;20039;-73
2022/08/18 06:41:58;;;;;;;19.10;9.38;;;;;;;;;;5092067;27;20059;-73
2022/08/18 06:44:51;;;;;;;19.33;9.85;;;;;;;;;;5108901;28;20047;-72
2022/08/18 06:47:48;;;;;;;18.83;9.75;;;;;;;;;;5127467;27;20468;-72
2022/08/18 06:50:28;;;;;;;17.65;10.05;;;;;;;;;;5127570;27;20043;-73
2022/08/18 06:53:02;;;;;;;16.27;8.60;;;;;;;;;;5127413;27;20043;-73
2022/08/18 06:55:44;;;;;;;16.65;9.85;;;;;;;;;;5127583;28;20066;-73
2022/08/18 06:58:17;;;;;;;17.40;9.68;;;;;;;;;;5126257;28;20066;-72
2022/08/18 07:00:52;;;;;;;20.27;9.90;;;;;;;;;;5127560;28;20534;-72
2022/08/18 07:03:36;;;;;;;17.23;8.57;;;;;;;;;;5108382;28;20062;-73
2022/08/18 07:06:22;;;;;;;22.58;10.15;;;;;;;;;;5127984;28;20047;-73
2022/08/18 07:08:54;;;;;;;16.23;8.95;;;;;;;;;;5126960;28;20035;-72
2022/08/18 07:11:31;;;;;;;18.40;7.45;;;;;;;;;;5128150;28;20051;-72
2022/08/18 07:14:21;;;;;;;17.00;7.53;;;;;;;;;;5127364;28;21046;-73
2022/08/18 07:17:06;;;;;;;15.10;8.82;;;;;;;;;;5127201;28;20043;-72
2022/08/18 07:19:37;;;;;;;26.88;10.55;;;;;;;;;;5127735;28;20039;-74
2022/08/18 07:22:09;;;;;;;12.95;7.75;;;;;;;;;;5127122;28;20470;-73
2022/08/18 07:24:39;;;;;;;15.75;7.35;;;;;;;;;;5108162;28;20062;-72
2022/08/18 07:27:14;;;;;;;13.98;6.97;;;;;;;;;;5127465;28;20500;-72
2022/08/18 07:30:03;;;;;;;14.32;7.50;;;;;;;;;;5127405;28;20048;-73
2022/08/18 07:32:48;;;;;;;14.40;7.68;;;;;;;;;;5109889;28;20054;-72
2022/08/18 07:35:25;;;;;;;15.40;7.68;;;;;;;;;;5127156;28;20055;-74
2022/08/18 07:38:04;;;;;;;14.38;7.38;;;;;;;;;;5127021;28;20047;-72
2022/08/18 07:41:13;;;;;;;10.93;6.80;;;;;;;;;;5125711;28;20058;-72
2022/08/18 07:43:53;;;;;;;12.43;6.75;;;;;;;;;;5127394;28;20047;-73
2022/08/18 07:46:44;;;;;;;13.82;8.38;;;;;;;;;;5127464;28;20043;-72
2022/08/18 07:49:20;;;;;;;11.65;7.30;;;;;;;;;;5126864;28;20059;-73
2022/08/18 07:52:17;;;;;;;17.20;6.97;;;;;;;;;;5111251;27;20058;-72
2022/08/18 07:55:24;;;;;;;13.98;7.78;;;;;;;;;;5112297;27;20594;-72
2022/08/18 07:58:31;;;;;;;12.75;7.47;;;;;;;;;;5130998;27;20047;-73
2022/08/18 08:01:21;;;;;;;12.85;7.38;;;;;;;;;;5130483;27;20046;-73
2022/08/18 08:04:01;;;;;;;15.23;7.05;;;;;;;;;;5130566;27;20051;-73
2022/08/18 08:06:37;;;;;;;14.35;8.15;;;;;;;;;;5130135;27;20055;-73
2022/08/18 08:09:25;;;;;;;14.90;6.75;;;;;;;;;;5130560;27;20051;-72
2022/08/18 08:12:10;;;;;;;15.75;7.72;;;;;;;;;;5112782;27;20355;-72
2022/08/18 08:14:50;;;;;;;12.60;7.30;;;;;;;;;;5129815;27;20047;-73
2022/08/18 08:17:33;;;;;;;9.40;5.63;;;;;;;;;;5130255;27;20097;-72
2022/08/18 08:20:26;;;;;;;5.85;4.25;;;;;;;;;;5130028;27;20043;-73
2022/08/18 08:23:22;;;;;;;4.95;2.70;;;;;;;;;;5129985;27;20413;-73
2022/08/18 08:26:02;;;;;;;2.90;1.88;;;;;;;;;;5116124;27;20059;-72
2022/08/18 08:28:32;;;;;;;3.90;2.15;;;;;;;;;;5129949;27;20059;-72
2022/08/18 08:31:15;;;;;;;;;;;;;;;;;;5130829;27;20062;-73
2022/08/18 08:34:36;;;;;;;5.40;2.30;;;;;;;;;;5130213;27;19931;-74
2022/08/18 08:37:14;;;;;;;6.22;2.75;;;;;;;;;;5130268;27;20050;-72
2022/08/18 08:39:50;;;;;;;5.10;2.40;;;;;;;;;;5129858;27;20048;-73
2022/08/18 08:42:44;;;;;;;5.03;2.20;;;;;;;;;;5129681;27;20654;-73
2022/08/18 08:45:36;;;;;;;8.82;2.72;;;;;;;;;;5119045;27;20058;-72
2022/08/18 08:48:23;;;;;;;6.13;2.90;;;;;;;;;;5110617;27;20065;-73
2022/08/18 08:51:03;;;;;;;6.22;3.05;;;;;;;;;;5129953;27;20047;-72
2022/08/18 08:53:44;;;;;;;8.00;2.75;;;;;;;;;;5129981;27;20050;-71
2022/08/18 08:56:16;;;;;;;5.82;2.80;;;;;;;;;;5129784;27;20405;-73
2022/08/18 08:58:55;;;;;;;8.80;2.83;;;;;;;;;;5129557;27;20046;-71
2022/08/18 09:02:08;;;;;;;4.93;3.35;;;;;;;;;;5129103;27;20047;-72
2022/08/18 09:04:54;;;;;;;8.00;3.63;;;;;;;;;;5026108;28;20045;-72
2022/08/18 09:08:10;;;;;;;6.03;2.55;;;;;;;;;;5025716;28;20056;-72
2022/08/18 09:11:03;;;;;;;4.90;2.42;;;;;;;;;;5125476;27;20058;-71
2022/08/18 09:13:41;;;;;;;7.13;2.97;;;;;;;;;;5129012;27;20069;-73
2022/08/18 09:16:50;;;;;;;5.03;3.00;;;;;;;;;;5128895;27;20043;-73
2022/08/18 09:19:38;;;;;;;5.75;2.63;;;;;;;;;;5129151;27;20055;-75
2022/08/18 09:22:39;;;;;;;5.28;3.20;;;;;;;;;;5111329;27;20039;-73
2022/08/18 09:25:33;;;;;;;7.50;3.10;;;;;;;;;;5128527;27;20047;-74
2022/08/18 09:28:10;;;;;;;5.05;2.90;;;;;;;;;;5128876;27;20035;-74
2022/08/18 09:30:55;;;;;;;5.35;3.72;;;;;;;;;;5128979;27;20058;-74
2022/08/18 09:33:39;;;;;;;6.80;3.40;;;;;;;;;;5128944;27;20039;-74
2022/08/18 09:36:20;;;;;;;9.35;4.10;;;;;;;;;;5129140;27;20043;-74
2022/08/18 09:42:03;;;;;;;5.15;2.70;;;;;;;;;;5128651;27;20482;-73
2022/08/18 09:44:46;;;;;;;6.53;3.67;;;;;;;;;;5128321;27;20326;-75
2022/08/18 09:47:20;;;;;;;7.50;3.78;;;;;;;;;;5109722;27;20047;-73
2022/08/18 09:50:16;;;;;;;6.03;3.63;;;;;;;;;;5128585;27;20520;-74
2022/08/18 09:52:58;;;;;;;7.20;3.72;;;;;;;;;;5092944;27;20055;-74
2022/08/18 09:55:32;;;;;;;6.85;4.22;;;;;;;;;;5128555;27;20046;-73
2022/08/18 09:58:17;;;;;;;7.28;2.92;;;;;;;;;;5128724;27;20047;-73
2022/08/18 10:01:08;;;;;;;;;;;;;;;;;;5128921;27;20043;-74
2022/08/18 10:03:39;;;;;;;3.88;1.48;;;;;;;;;;5110507;27;20424;-73
2022/08/18 10:06:18;;;;;;;3.40;1.98;;;;;;;;;;5127574;27;20043;-74
2022/08/18 10:09:24;;;;;;;3.20;1.80;;;;;;;;;;5128379;27;20043;-77
2022/08/18 10:12:28;;;;;;;2.58;1.85;;;;;;;;;;5127645;27;20046;-74
2022/08/18 10:15:22;;;;;;;4.43;2.20;;;;;;;;;;5127107;27;20397;-73
2022/08/18 10:18:23;;;;;;;4.10;2.50;;;;;;;;;;5127457;27;20054;-72
2022/08/18 10:21:25;;;;;;;3.83;2.75;;;;;;;;;;5128771;27;21061;-73
2022/08/18 10:24:07;;;;;;;3.80;2.53;;;;;;;;;;5128060;27;20047;-73
2022/08/18 10:26:59;;;;;;;3.28;1.92;;;;;;;;;;5127756;27;20039;-73
2022/08/18 10:29:29;;;;;;;3.08;2.17;;;;;;;;;;5127788;27;20047;-73
2022/08/18 10:31:58;;;;;;;3.05;2.40;;;;;;;;;;5125700;27;20035;-74
2022/08/18 10:34:45;;;;;;;5.18;2.22;;;;;;;;;;5127342;27;20051;-73
2022/08/18 10:37:31;;;;;;;3.33;2.13;;;;;;;;;;5110860;27;20524;-73
2022/08/18 10:40:14;;;;;;;27.42;15.57;;;;;;;;;;5128642;27;20046;-72
2022/08/18 10:42:57;;;;;;;15.65;7.85;;;;;;;;;;5127529;27;20055;-74
2022/08/18 10:45:48;;;;;;;15.57;7.70;;;;;;;;;;5126996;27;20832;-72
2022/08/18 10:48:38;;;;;;;4.35;2.75;;;;;;;;;;5127406;27;20098;-73
2022/08/18 10:51:17;;;;;;;2.97;2.03;;;;;;;;;;5128352;27;20138;-74
2022/08/18 10:53:53;;;;;;;4.88;2.10;;;;;;;;;;5127582;27;20497;-72
2022/08/18 10:56:46;;;;;;;6.75;4.18;;;;;;;;;;5128372;28;20413;-73
2022/08/18 10:59:44;;;;;;;7.50;3.97;;;;;;;;;;5128536;28;20407;-73
2022/08/18 11:02:52;;;;;;;3.38;1.92;;;;;;;;;;5128301;28;20051;-73
2022/08/18 11:05:42;;;;;;;8.45;5.38;;;;;;;;;;5127736;28;20039;-73
2022/08/18 11:08:19;;;;;;;3.47;1.92;;;;;;;;;;5127544;28;20070;-72
2022/08/18 11:10:49;;;;;;;2.45;1.48;;;;;;;;;;5127735;28;20501;-73
2022/08/18 11:13:53;;;;;;;3.72;1.77;;;;;;;;;;5127750;28;20047;-71
2022/08/18 11:16:50;;;;;;;2.20;1.45;;;;;;;;;;5128050;28;20405;-71
2022/08/18 11:19:23;;;;;;;1.73;1.10;;;;;;;;;;5112073;28;20055;-76
2022/08/18 11:21:53;;;;;;;2.65;1.63;;;;;;;;;;5127234;28;20047;-73
2022/08/18 11:24:30;;;;;;;7.43;3.95;;;;;;;;;;5127273;27;20051;-72
2022/08/18 11:27:15;;;;;;;2.83;1.75;;;;;;;;;;5130809;27;20058;-72
2022/08/18 11:29:46;;;;;;;2.45;1.52;;;;;;;;;;5131525;27;20051;-73
2022/08/18 11:32:36;;;;;;;3.88;1.33;;;;;;;;;;5130231;27;20543;-73
2022/08/18 11:35:44;;;;;;;2.50;1.50;;;;;;;;;;5130618;27;20043;-75
2022/08/18 11:38:18;;;;;;;2.85;1.90;;;;;;;;;;5112204;27;20501;-73
2022/08/18 11:41:08;;;;;;;2.20;1.30;;;;;;;;;;5130355;27;20050;-73
2022/08/18 11:43:41;;;;;;;2.80;1.35;;;;;;;;;;5131024;27;20054;-73
2022/08/18 11:46:24;;;;;;;3.13;1.75;;;;;;;;;;5114199;27;20401;-72
2022/08/18 11:49:12;;;;;;;1.20;0.80;;;;;;;;;;5131029;27;20048;-73
2022/08/18 11:52:22;;;;;;;3.25;1.20;;;;;;;;;;5130978;27;20043;-72
2022/08/18 11:55:05;;;;;;;1.67;1.23;;;;;;;;;;5124019;27;20429;-73
2022/08/18 11:57:54;;;;;;;2.67;1.08;;;;;;;;;;5131019;27;20050;-73
2022/08/18 12:00:55;;;;;;;2.40;1.20;;;;;;;;;;5130751;27;20042;-73
2022/08/18 12:03:48;;;;;;;2.38;1.20;;;;;;;;;;5130485;27;20489;-74
2022/08/18 12:06:25;;;;;;;2.45;1.38;;;;;;;;;;5130286;27;20050;-73
2022/08/18 12:09:04;;;;;;;2.70;1.83;;;;;;;;;;5112798;27;20043;-73
2022/08/18 12:11:40;;;;;;;2.45;1.70;;;;;;;;;;5130971;27;20043;-73
2022/08/18 12:14:20;;;;;;;2.85;1.77;;;;;;;;;;5130046;27;20070;-72
2022/08/18 12:17:06;;;;;;;2.83;1.33;;;;;;;;;;5130390;27;20046;-73
2022/08/18 12:19:38;;;;;;;;;;;;;;;;;;5111674;27;20055;-72
2022/08/18 12:22:21;;;;;;;1.77;1.20;;;;;;;;;;5130910;27;19923;-72
2022/08/18 12:24:51;;;;;;;2.45;1.17;;;;;;;;;;5130428;27;20039;-71
2022/08/18 12:27:23;;;;;;;2.83;1.70;;;;;;;;;;5111863;27;20047;-72
2022/08/18 12:30:02;;;;;;;3.35;1.63;;;;;;;;;;5130374;27;20051;-72
2022/08/18 12:32:34;;;;;;;1.38;1.27;;;;;;;;;;5130181;27;20043;-73
2022/08/18 12:35:24;;;;;;;3.88;1.73;;;;;;;;;;5129779;27;20047;-73
2022/08/18 12:37:55;;;;;;;3.92;2.00;;;;;;;;;;5111293;27;20062;-73
2022/08/18 12:40:39;;;;;;;2.95;1.77;;;;;;;;;;5110489;27;20051;-76
2022/08/18 12:43:10;;;;;;;2.53;1.80;;;;;;;;;;5129853;27;20043;-73
2022/08/18 12:45:41;;;;;;;4.07;2.10;;;;;;;;;;5129932;27;20043;-72
2022/08/18 12:48:11;;;;;;;5.55;2.47;;;;;;;;;;5129400;27;20050;-73
2022/08/18 12:50:43;;;;;;;6.00;1.85;;;;;;;;;;5129995;27;20105;-72
2022/08/18 12:53:25;;;;;;;3.45;1.92;;;;;;;;;;5129557;27;20057;-72
2022/08/18 12:56:22;;;;;;;3.42;2.00;;;;;;;;;;5110826;27;20051;-73
2022/08/18 12:58:53;;;;;;;4.38;1.67;;;;;;;;;;5129430;27;20066;-72
2022/08/18 13:01:25;;;;;;;5.82;3.85;;;;;;;;;;5129672;27;20051;-71
2022/08/18 13:03:56;;;;;;;6.40;3.70;;;;;;;;;;5129346;27;20043;-72
2022/08/18 13:06:59;;;;;;;4.10;2.42;;;;;;;;;;5128825;27;20047;-72
2022/08/18 13:09:35;;;;;;;7.47;3.67;;;;;;;;;;5129461;27;20397;-72
2022/08/18 13:12:24;;;;;;;3.20;1.70;;;;;;;;;;5129032;27;20043;-72
2022/08/18 13:14:56;;;;;;;5.05;1.75;;;;;;;;;;5129093;27;20043;-72
2022/08/18 13:17:27;;;;;;;8.20;2.40;;;;;;;;;;5129544;27;20043;-73
2022/08/18 13:20:08;;;;;;;3.50;2.45;;;;;;;;;;5129148;27;20051;-72
2022/08/18 13:22:41;;;;;;;3.28;2.20;;;;;;;;;;5129300;27;20428;-72
2022/08/18 13:25:14;;;;;;;15.00;2.67;;;;;;;;;;5129345;27;20047;-72
2022/08/18 13:28:05;;;;;;;5.30;2.70;;;;;;;;;;5128915;27;20394;-72
2022/08/18 13:30:36;;;;;;;6.70;2.17;;;;;;;;;;5128895;27;20153;-72
2022/08/18 13:33:07;;;;;;;6.70;2.45;;;;;;;;;;5129592;27;20145;-74
2022/08/18 13:35:57;;;;;;;4.30;2.17;;;;;;;;;;5128664;27;20047;-72
2022/08/18 13:38:26;;;;;;;3.22;2.05;;;;;;;;;;5128414;27;20047;-73
2022/08/18 13:40:59;;;;;;;4.65;2.50;;;;;;;;;;5128246;27;20405;-72
2022/08/18 13:43:34;;;;;;;5.95;2.55;;;;;;;;;;5111149;27;20043;-72
2022/08/18 13:46:09;;;;;;;5.40;2.72;;;;;;;;;;5109710;27;20046;-72
2022/08/18 13:48:39;;;;;;;4.78;2.92;;;;;;;;;;5108415;27;20066;-72
2022/08/18 13:51:24;;;;;;;5.22;2.92;;;;;;;;;;5128119;27;20398;-73
2022/08/18 13:53:55;;;;;;;4.47;2.88;;;;;;;;;;5109117;27;20043;-73
2022/08/18 13:56:45;;;;;;;4.97;2.33;;;;;;;;;;5109558;27;20055;-72
2022/08/18 13:59:22;;;;;;;4.68;2.80;;;;;;;;;;5128883;27;20146;-72
2022/08/18 14:01:55;;;;;;;5.30;3.05;;;;;;;;;;5128149;27;20544;-73
2022/08/18 14:04:25;;;;;;;5.38;2.90;;;;;;;;;;5128102;27;20047;-74
2022/08/18 14:06:56;;;;;;;5.47;3.08;;;;;;;;;;5128185;27;20047;-71
2022/08/18 14:09:29;;;;;;;4.88;2.92;;;;;;;;;;5127809;27;20047;-72
2022/08/18 14:12:17;;;;;;;5.78;2.88;;;;;;;;;;5128520;27;20046;-73
2022/08/18 14:14:52;;;;;;;4.20;2.70;;;;;;;;;;5127793;27;20050;-71
2022/08/18 14:17:24;;;;;;;6.07;3.63;;;;;;;;;;5128152;27;20047;-72
2022/08/18 14:28:40;;;;;;;;;;;;;;;;;;5128346;27;20058;-71
2022/08/18 14:31:15;;;;;;;2.95;1.63;;;;;;;;;;5110494;27;19923;-71
2022/08/18 14:33:48;;;;;;;3.95;2.30;;;;;;;;;;5110139;27;20512;-71
2022/08/18 14:36:23;;;;;;;3.17;2.08;;;;;;;;;;5127517;27;20732;-72
2022/08/18 14:38:59;;;;;;;3.28;1.83;;;;;;;;;;5127875;27;20054;-71
2022/08/18 14:41:30;;;;;;;3.90;2.38;;;;;;;;;;5109504;27;20054;-71
2022/08/18 14:44:00;;;;;;;4.85;2.55;;;;;;;;;;5127380;27;20050;-72
2022/08/18 14:46:45;;;;;;;4.28;1.88;;;;;;;;;;5127106;27;20046;-72
2022/08/18 14:49:26;;;;;;;2.95;2.03;;;;;;;;;;5127857;27;20413;-72
2022/08/18 14:51:59;;;;;;;3.17;1.80;;;;;;;;;;5127749;27;20065;-74
2022/08/18 14:54:30;;;;;;;3.70;2.20;;;;;;;;;;5127217;27;20047;-71
2022/08/18 14:57:01;;;;;;;2.10;1.20;;;;;;;;;;5127637;28;20039;-71
2022/08/18 14:59:32;;;;;;;1.77;1.13;;;;;;;;;;5108950;28;20754;-72
2022/08/18 15:02:07;;;;;;;2.22;1.60;;;;;;;;;;5127652;28;20038;-72
2022/08/18 15:04:43;;;;;;;2.20;1.50;;;;;;;;;;5127441;28;20512;-72
2022/08/18 15:07:24;;;;;;;2.90;1.63;;;;;;;;;;5126969;28;20043;-70
2022/08/18 15:09:54;;;;;;;4.85;2.22;;;;;;;;;;5126875;28;20047;-71
2022/08/18 15:12:44;;;;;;;2.17;1.45;;;;;;;;;;5127040;28;20378;-72
2022/08/18 15:15:15;;;;;;;2.65;1.50;;;;;;;;;;5108394;28;20509;-71
2022/08/18 15:17:46;;;;;;;5.57;2.42;;;;;;;;;;5108473;28;20425;-71
2022/08/18 15:20:23;;;;;;;5.10;2.28;;;;;;;;;;5126735;28;20047;-71
2022/08/18 15:25:56;;;;;;;2.47;1.58;;;;;;;;;;5126969;28;20069;-72
2022/08/18 15:28:27;;;;;;;5.15;1.90;;;;;;;;;;5126859;28;20038;-73
2022/08/18 15:30:56;;;;;;;4.70;2.05;;;;;;;;;;5127153;28;20043;-72
2022/08/18 15:33:46;;;;;;;4.22;2.25;;;;;;;;;;5126735;28;20036;-73
2022/08/18 15:36:20;;;;;;;3.63;2.28;;;;;;;;;;5126718;28;20050;-72
2022/08/18 15:38:58;;;;;;;6.43;2.92;;;;;;;;;;5126676;28;20047;-70
2022/08/18 15:41:39;;;;;;;5.82;2.95;;;;;;;;;;5127035;28;20789;-72
2022/08/18 15:44:14;;;;;;;5.70;2.30;;;;;;;;;;5127331;28;20047;-72
2022/08/18 15:46:44;;;;;;;4.47;1.58;;;;;;;;;;5127540;28;20039;-74
2022/08/18 15:49:19;;;;;;;3.97;2.33;;;;;;;;;;5126711;28;20058;-72
2022/08/18 15:51:50;;;;;;;4.88;2.10;;;;;;;;;;5127284;28;20043;-72
2022/08/18 15:54:22;;;;;;;4.20;2.58;;;;;;;;;;5127210;28;20506;-72
2022/08/18 15:56:52;;;;;;;3.10;1.88;;;;;;;;;;5126337;28;20405;-72
2022/08/18 15:59:27;;;;;;;4.40;2.25;;;;;;;;;;5127420;28;20051;-72
2022/08/18 16:02:10;;;;;;;9.23;5.95;;;;;;;;;;5126337;28;20794;-72
2022/08/18 16:04:47;;;;;;;4.15;2.53;;;;;;;;;;5126857;28;20051;-72
2022/08/18 16:07:17;;;;;;;6.80;2.33;;;;;;;;;;5125686;28;20059;-73
2022/08/18 16:10:08;;;;;;;4.63;2.38;;;;;;;;;;5126574;28;20047;-71
2022/08/18 16:12:38;;;;;;;5.95;2.90;;;;;;;;;;5111167;27;20047;-73
2022/08/18 16:15:19;;;;;;;5.30;3.20;;;;;;;;;;5113463;27;20046;-71